createdAt,value
2022-11-25T00:01:30.366Z,1.47
2022-11-25T00:03:59.987Z,1.07
2022-11-25T00:06:29.585Z,1.57
2022-11-25T00:09:00.471Z,1.30
2022-11-25T00:11:29.501Z,1.50
2022-11-25T00:13:58.648Z,1.07
2022-11-25T00:16:27.701Z,1.70
2022-11-25T00:18:59.018Z,1.63
2022-11-25T00:21:28.756Z,1.13
2022-11-25T00:24:00.200Z,1.87
2022-11-25T00:26:29.686Z,2.00
2022-11-25T00:29:00.639Z,1.30
2022-11-25T00:31:30.608Z,1.17
2022-11-25T00:33:59.190Z,1.37
2022-11-25T00:36:29.172Z,1.17
2022-11-25T00:38:59.954Z,1.17
2022-11-25T00:41:46.657Z,1.17
2022-11-25T00:44:33.948Z,1.00
2022-11-25T00:47:03.078Z,1.97
2022-11-25T00:49:31.445Z,1.17
2022-11-25T00:51:59.749Z,0.70
2022-11-25T00:54:29.228Z,1.27
2022-11-25T00:56:57.277Z,1.10
2022-11-25T00:59:25.369Z,0.73
2022-11-25T01:01:53.541Z,0.80
2022-11-25T01:04:21.675Z,0.90
2022-11-25T01:06:49.798Z,0.90
2022-11-25T01:09:18.137Z,1.30
2022-11-25T01:11:47.689Z,1.50
2022-11-25T01:14:15.805Z,0.90
2022-11-25T01:16:43.972Z,0.70
2022-11-25T01:19:13.211Z,1.17
2022-11-25T01:21:41.947Z,0.93
2022-11-25T01:24:11.407Z,1.00
2022-11-25T01:26:39.406Z,1.00
2022-11-25T01:29:13.519Z,0.67
2022-11-25T01:31:41.949Z,1.07
2022-11-25T01:34:14.789Z,0.70
2022-11-25T01:36:43.631Z,1.10
2022-11-25T01:39:17.059Z,0.73
2022-11-25T01:41:45.801Z,1.50
2022-11-25T01:44:17.041Z,1.27
2022-11-25T01:46:59.495Z,1.20
2022-11-25T01:49:32.958Z,1.00
2022-11-25T01:52:06.411Z,1.13
2022-11-25T01:54:38.479Z,0.80
2022-11-25T01:57:10.802Z,0.60
2022-11-25T01:59:44.804Z,0.97
2022-11-25T02:02:13.382Z,1.20
2022-11-25T02:04:42.040Z,1.63
2022-11-25T02:07:16.330Z,1.00
2022-11-25T02:09:46.840Z,0.83
2022-11-25T02:12:17.609Z,0.90
2022-11-25T02:14:49.836Z,0.83
2022-11-25T02:17:18.127Z,1.67
2022-11-25T02:19:59.238Z,0.70
2022-11-25T02:22:34.543Z,1.43
2022-11-25T02:25:16.892Z,1.10
2022-11-25T02:27:47.650Z,1.10
2022-11-25T02:30:16.022Z,0.53
2022-11-25T02:32:45.435Z,1.10
2022-11-25T02:35:27.257Z,0.93
2022-11-25T02:38:00.049Z,0.93
2022-11-25T02:40:30.466Z,0.90
2022-11-25T02:43:01.041Z,2.37
2022-11-25T02:45:46.450Z,1.33
2022-11-25T02:48:14.605Z,1.80
2022-11-25T02:50:42.717Z,1.73
2022-11-25T02:53:10.802Z,0.70
2022-11-25T02:55:40.223Z,1.55
2022-11-25T02:58:08.606Z,1.30
2022-11-25T03:00:37.043Z,0.93
2022-11-25T03:03:05.542Z,1.27
2022-11-25T03:05:33.904Z,0.70
2022-11-25T03:08:02.141Z,1.65
2022-11-25T03:10:30.271Z,1.10
2022-11-25T03:12:59.903Z,0.90
2022-11-25T03:15:28.368Z,1.67
2022-11-25T03:17:56.457Z,1.83
2022-11-25T03:20:24.836Z,2.03
2022-11-25T03:22:53.008Z,0.93
2022-11-25T03:25:21.412Z,1.52
2022-11-25T03:27:49.815Z,1.00
2022-11-25T03:30:22.296Z,1.88
2022-11-25T03:32:50.613Z,1.10
2022-11-25T03:35:19.220Z,1.58
2022-11-25T03:37:47.454Z,1.45
2022-11-25T03:40:17.444Z,1.30
2022-11-25T03:42:45.848Z,1.10
2022-11-25T03:45:15.923Z,1.38
2022-11-25T03:47:46.440Z,1.23
2022-11-25T03:50:15.901Z,1.45
2022-11-25T03:52:44.048Z,1.45
2022-11-25T03:55:13.045Z,1.70
2022-11-25T03:57:41.238Z,1.30
2022-11-25T04:00:10.501Z,0.93
2022-11-25T04:02:38.577Z,1.42
2022-11-25T04:05:08.864Z,1.55
2022-11-25T04:07:37.013Z,1.08
2022-11-25T04:10:05.678Z,1.75
2022-11-25T04:12:48.515Z,1.30
2022-11-25T04:15:20.291Z,1.73
2022-11-25T04:17:48.371Z,1.70
2022-11-25T04:20:18.279Z,1.38
2022-11-25T04:22:46.431Z,1.33
2022-11-25T04:25:14.629Z,1.45
2022-11-25T04:27:42.695Z,1.20
2022-11-25T04:30:11.523Z,1.02
2022-11-25T04:32:40.052Z,1.30
2022-11-25T04:35:08.649Z,1.40
2022-11-25T04:37:38.095Z,1.30
2022-11-25T04:40:07.762Z,1.70
2022-11-25T04:42:36.931Z,1.20
2022-11-25T04:45:24.959Z,0.80
2022-11-25T04:47:53.101Z,1.00
2022-11-25T04:50:23.239Z,1.40
2022-11-25T04:52:52.689Z,1.23
2022-11-25T04:55:21.421Z,1.40
2022-11-25T04:57:49.551Z,2.30
2022-11-25T05:00:17.570Z,1.30
2022-11-25T05:02:45.669Z,1.35
2022-11-25T05:05:13.962Z,1.20
2022-11-25T05:07:42.242Z,1.80
2022-11-25T05:10:11.757Z,0.93
2022-11-25T05:12:40.379Z,1.80
2022-11-25T05:15:09.576Z,1.40
2022-11-25T05:17:38.322Z,1.45
2022-11-25T05:20:07.977Z,1.48
2022-11-25T05:22:36.626Z,1.40
2022-11-25T05:25:06.783Z,1.27
2022-11-25T05:27:36.194Z,1.30
2022-11-25T05:30:04.740Z,1.10
2022-11-25T05:32:32.793Z,1.15
2022-11-25T05:35:00.861Z,1.08
2022-11-25T05:37:28.959Z,1.30
2022-11-25T05:39:57.070Z,1.67
2022-11-25T05:42:25.160Z,1.70
2022-11-25T05:44:54.639Z,2.08
2022-11-25T05:47:22.770Z,1.88
2022-11-25T05:49:50.849Z,1.67
2022-11-25T05:52:18.982Z,1.50
2022-11-25T05:54:47.024Z,1.90
2022-11-25T05:57:15.058Z,1.48
2022-11-25T05:59:43.137Z,1.10
2022-11-25T06:02:13.037Z,1.63
2022-11-25T06:04:41.130Z,1.30
2022-11-25T06:07:09.238Z,1.10
2022-11-25T06:09:37.410Z,1.13
2022-11-25T06:12:05.817Z,1.50
2022-11-25T06:14:34.241Z,1.35
2022-11-25T06:17:02.487Z,1.35
2022-11-25T06:19:31.992Z,1.45
2022-11-25T06:22:00.036Z,1.30
2022-11-25T06:24:28.198Z,1.27
2022-11-25T06:26:56.185Z,0.95
2022-11-25T06:29:24.287Z,1.30
2022-11-25T06:31:52.426Z,1.98
2022-11-25T06:34:20.606Z,1.02
2022-11-25T06:36:51.623Z,1.23
2022-11-25T06:39:19.810Z,1.42
2022-11-25T06:41:48.243Z,1.13
2022-11-25T06:44:16.750Z,0.93
2022-11-25T06:46:44.896Z,1.20
2022-11-25T06:49:13.029Z,5.35
2022-11-25T06:51:41.179Z,5.13
2022-11-25T06:54:10.656Z,4.28
2022-11-25T06:56:40.398Z,1.65
2022-11-25T06:59:08.998Z,1.35
2022-11-25T07:01:38.291Z,1.30
2022-11-25T07:04:06.909Z,1.80
2022-11-25T07:06:35.479Z,1.23
2022-11-25T07:09:04.646Z,1.10
2022-11-25T07:11:36.185Z,1.20
2022-11-25T07:14:06.736Z,1.20
2022-11-25T07:16:35.525Z,1.75
2022-11-25T07:19:04.515Z,1.60
2022-11-25T07:21:34.043Z,1.13
2022-11-25T07:24:04.013Z,1.15
2022-11-25T07:26:35.465Z,1.70
2022-11-25T07:29:13.908Z,0.73
2022-11-25T07:31:52.139Z,4.53
2022-11-25T07:34:21.908Z,1.77
2022-11-25T07:36:51.105Z,0.90
2022-11-25T07:39:21.197Z,0.95
2022-11-25T07:41:55.229Z,1.35
2022-11-25T07:44:23.356Z,1.20
2022-11-25T07:46:52.272Z,1.00
2022-11-25T07:49:22.409Z,0.82
2022-11-25T07:51:53.739Z,1.00
2022-11-25T07:54:23.915Z,1.38
2022-11-25T07:56:53.723Z,1.88
2022-11-25T07:59:23.496Z,1.20
2022-11-25T08:01:52.501Z,0.95
2022-11-25T08:04:21.406Z,1.05
2022-11-25T08:06:51.986Z,0.98
2022-11-25T08:09:22.254Z,1.20
2022-11-25T08:11:50.948Z,1.10
2022-11-25T08:14:20.906Z,0.80
2022-11-25T08:16:51.936Z,1.17
2022-11-25T08:19:20.801Z,0.90
2022-11-25T08:21:49.122Z,1.40
2022-11-25T08:24:19.072Z,1.20
2022-11-25T08:26:47.736Z,1.90
2022-11-25T08:29:17.411Z,1.15
2022-11-25T08:31:47.184Z,1.40
2022-11-25T08:34:20.762Z,1.10
2022-11-25T08:36:49.301Z,1.08
2022-11-25T08:42:09.423Z,1.35
2022-11-25T08:44:37.853Z,1.00
2022-11-25T08:47:07.450Z,1.00
2022-11-25T08:49:40.847Z,1.02
2022-11-25T08:52:10.543Z,0.70
2022-11-25T08:54:38.858Z,1.10
2022-11-25T08:57:07.600Z,1.25
2022-11-25T08:59:36.541Z,0.95
2022-11-25T09:02:05.672Z,0.98
2022-11-25T09:04:36.592Z,1.27
2022-11-25T09:07:06.413Z,1.08
2022-11-25T09:09:37.486Z,1.25
2022-11-25T09:12:06.603Z,1.13
2022-11-25T09:14:35.044Z,1.10
2022-11-25T09:17:03.879Z,0.82
2022-11-25T09:19:32.299Z,1.23
2022-11-25T09:22:02.234Z,1.50
2022-11-25T09:24:30.532Z,1.60
2022-11-25T09:26:58.776Z,1.25
2022-11-25T09:29:27.878Z,0.63
2022-11-25T09:31:56.118Z,0.95
2022-11-25T09:34:24.504Z,1.23
2022-11-25T09:36:52.940Z,1.02
2022-11-25T09:39:23.649Z,1.25
2022-11-25T09:42:23.057Z,1.10
2022-11-25T09:45:21.950Z,0.75
2022-11-25T09:47:59.481Z,0.80
2022-11-25T09:50:42.597Z,0.85
2022-11-25T09:53:26.752Z,1.15
2022-11-25T09:56:03.073Z,1.10
2022-11-25T09:58:35.731Z,1.10
2022-11-25T10:01:07.733Z,1.00
2022-11-25T10:03:40.611Z,0.82
2022-11-25T10:06:16.120Z,1.58
2022-11-25T10:08:46.604Z,1.50
2022-11-25T10:11:28.268Z,1.20
2022-11-25T10:13:59.857Z,0.80
2022-11-25T10:16:35.714Z,0.95
2022-11-25T10:19:15.110Z,0.88
2022-11-25T10:21:46.486Z,0.80
2022-11-25T10:24:17.868Z,1.20
2022-11-25T10:26:55.944Z,0.80
2022-11-25T10:29:28.091Z,1.13
2022-11-25T10:32:04.449Z,0.65
2022-11-25T10:34:38.226Z,0.40
2022-11-25T10:37:19.777Z,0.82
2022-11-25T10:39:48.026Z,0.80
2022-11-25T10:42:22.727Z,0.90
2022-11-25T10:44:51.203Z,0.60
2022-11-25T10:47:36.346Z,0.60
2022-11-25T10:50:26.728Z,1.00
2022-11-25T10:52:59.293Z,0.77
2022-11-25T10:55:29.712Z,0.68
2022-11-25T10:58:00.044Z,0.90
2022-11-25T11:00:32.801Z,0.40
2022-11-25T11:03:15.117Z,0.80
2022-11-25T11:05:48.977Z,1.27
2022-11-25T11:08:19.790Z,0.80
2022-11-25T11:10:54.309Z,1.13
2022-11-25T11:13:33.295Z,1.15
2022-11-25T11:16:01.775Z,0.95
2022-11-25T11:18:41.890Z,1.13
2022-11-25T11:21:24.484Z,0.60
2022-11-25T11:23:54.976Z,0.75
2022-11-25T11:26:26.108Z,0.77
2022-11-25T11:29:08.432Z,1.30
2022-11-25T11:31:45.784Z,0.93
2022-11-25T11:34:31.571Z,0.85
2022-11-25T11:37:18.103Z,1.20
2022-11-25T11:40:04.510Z,1.00
2022-11-25T11:42:43.713Z,1.02
2022-11-25T11:45:34.836Z,0.70
2022-11-25T11:48:13.452Z,1.25
2022-11-25T11:50:46.518Z,1.08
2022-11-25T11:53:25.725Z,1.30
2022-11-25T11:56:33.630Z,1.25
2022-11-25T11:59:07.769Z,1.25
2022-11-25T12:01:54.088Z,1.17
2022-11-25T12:04:28.401Z,0.85
2022-11-25T12:07:04.628Z,1.63
2022-11-25T12:09:38.440Z,2.08
2022-11-25T12:12:10.671Z,0.88
2022-11-25T12:14:44.072Z,1.10
2022-11-25T12:17:19.346Z,0.82
2022-11-25T12:19:54.934Z,0.90
2022-11-25T12:22:28.493Z,1.17
2022-11-25T12:25:05.372Z,0.85
2022-11-25T12:27:39.906Z,0.80
2022-11-25T12:30:11.699Z,0.98
2022-11-25T12:32:57.435Z,1.23
2022-11-25T12:35:34.961Z,0.95
2022-11-25T12:38:13.783Z,1.20
2022-11-25T12:40:47.968Z,0.63
2022-11-25T12:43:27.287Z,1.05
2022-11-25T12:46:07.382Z,1.20
2022-11-25T12:48:41.902Z,1.33
2022-11-25T12:51:31.007Z,1.90
2022-11-25T12:54:11.815Z,1.48
2022-11-25T12:56:56.960Z,1.27
2022-11-25T12:59:47.522Z,1.02
2022-11-25T13:02:49.018Z,1.17
2022-11-25T13:06:10.693Z,1.20
2022-11-25T13:08:56.908Z,1.00
2022-11-25T13:11:51.937Z,1.65
2022-11-25T13:14:40.611Z,1.15
2022-11-25T13:17:13.195Z,1.10
2022-11-25T13:19:41.977Z,1.10
2022-11-25T13:25:03.877Z,1.00
2022-11-25T13:27:33.133Z,1.17
2022-11-25T13:30:02.538Z,1.48
2022-11-25T13:32:40.674Z,0.73
2022-11-25T13:35:39.553Z,1.00
2022-11-25T13:38:36.921Z,1.10
2022-11-25T13:41:24.504Z,1.00
2022-11-25T13:44:01.621Z,1.33
2022-11-25T13:46:38.258Z,1.00
2022-11-25T13:49:08.249Z,1.15
2022-11-25T13:51:37.900Z,0.95
2022-11-25T13:54:08.313Z,1.05
2022-11-25T13:56:38.892Z,0.93
2022-11-25T13:59:37.665Z,1.02
2022-11-25T14:02:45.179Z,1.10
2022-11-25T14:05:43.656Z,1.10
2022-11-25T14:08:28.279Z,1.10
2022-11-25T14:11:08.644Z,1.00
2022-11-25T14:14:05.684Z,1.00
2022-11-25T14:16:50.031Z,1.00
2022-11-25T14:19:55.222Z,1.20
2022-11-25T14:22:51.602Z,1.02
2022-11-25T14:25:25.059Z,1.00
2022-11-25T14:28:03.815Z,0.98
2022-11-25T14:30:35.293Z,0.60
2022-11-25T14:33:05.984Z,1.38
2022-11-25T14:35:43.704Z,1.25
2022-11-25T14:38:18.843Z,0.90
2022-11-25T14:40:54.842Z,1.40
2022-11-25T14:43:25.483Z,1.40
2022-11-25T14:46:15.508Z,1.02
2022-11-25T14:48:44.710Z,1.25
2022-11-25T14:51:14.996Z,1.40
2022-11-25T14:53:48.079Z,0.93
2022-11-25T14:56:22.259Z,0.80
2022-11-25T14:58:53.286Z,1.05
2022-11-25T15:01:25.167Z,1.15
2022-11-25T15:04:03.554Z,1.88
2022-11-25T15:06:36.271Z,1.30
2022-11-25T15:09:18.583Z,1.00
2022-11-25T15:11:47.531Z,1.10
2022-11-25T15:14:25.341Z,1.20
2022-11-25T15:16:55.760Z,1.63
2022-11-25T15:19:32.089Z,1.20
2022-11-25T15:24:55.658Z,1.35
2022-11-25T15:27:28.511Z,0.80
2022-11-25T15:29:58.663Z,1.13
2022-11-25T15:32:30.252Z,1.30
2022-11-25T15:35:01.394Z,0.93
2022-11-25T15:37:32.957Z,1.25
2022-11-25T15:40:36.741Z,1.52
2022-11-25T15:43:08.011Z,1.67
2022-11-25T15:45:44.634Z,1.80
2022-11-25T15:48:19.216Z,1.73
2022-11-25T15:50:47.393Z,1.02
2022-11-25T15:53:28.773Z,1.33
2022-11-25T15:56:01.892Z,1.75
2022-11-25T15:58:30.095Z,1.95
2022-11-25T16:01:03.272Z,1.65
2022-11-25T16:03:35.289Z,2.42
2022-11-25T16:06:19.356Z,1.77
2022-11-25T16:08:54.905Z,1.33
2022-11-25T16:11:25.541Z,1.58
2022-11-25T16:13:55.441Z,1.48
2022-11-25T16:16:27.122Z,2.05
2022-11-25T16:19:15.855Z,1.40
2022-11-25T16:21:48.039Z,1.13
2022-11-25T16:24:34.435Z,1.42
2022-11-25T16:27:04.903Z,1.58
2022-11-25T16:29:35.080Z,2.22
2022-11-25T16:32:14.868Z,2.00
2022-11-25T16:34:44.728Z,1.50
2022-11-25T16:37:13.185Z,1.75
2022-11-25T16:39:41.267Z,2.00
2022-11-25T16:42:19.080Z,1.98
2022-11-25T16:44:49.868Z,1.67
2022-11-25T16:47:18.705Z,2.65
2022-11-25T16:49:48.306Z,1.60
2022-11-25T16:52:16.389Z,1.77
2022-11-25T16:54:44.493Z,1.80
2022-11-25T16:57:19.167Z,2.05
2022-11-25T16:59:54.379Z,1.90
2022-11-25T17:02:24.224Z,2.10
2022-11-25T17:04:53.877Z,1.75
2022-11-25T17:07:38.368Z,2.38
2022-11-25T17:10:08.495Z,1.88
2022-11-25T17:12:38.071Z,1.67
2022-11-25T17:15:09.449Z,1.60
2022-11-25T17:17:37.821Z,1.83
2022-11-25T17:20:11.570Z,1.67
2022-11-25T17:22:39.824Z,2.10
2022-11-25T17:25:11.467Z,2.10
2022-11-25T17:27:40.851Z,2.78
2022-11-25T17:30:17.888Z,2.72
2022-11-25T17:32:46.468Z,2.22
2022-11-25T17:35:21.133Z,2.30
2022-11-25T17:37:49.931Z,2.10
2022-11-25T17:40:18.575Z,1.67
2022-11-25T17:42:49.959Z,1.80
2022-11-25T17:45:20.482Z,1.98
2022-11-25T17:47:49.498Z,1.70
2022-11-25T17:50:21.134Z,2.45
2022-11-25T17:52:49.443Z,2.05
2022-11-25T17:55:19.732Z,2.03
2022-11-25T17:57:48.348Z,1.90
2022-11-25T18:00:18.834Z,1.42
2022-11-25T18:02:47.246Z,1.92
2022-11-25T18:05:17.556Z,1.73
2022-11-25T18:07:47.807Z,2.83
2022-11-25T18:10:17.208Z,2.05
2022-11-25T18:12:47.266Z,2.15
2022-11-25T18:15:17.925Z,2.33
2022-11-25T18:17:47.036Z,2.13
2022-11-25T18:20:21.145Z,2.00
2022-11-25T18:22:51.853Z,2.30
2022-11-25T18:25:22.660Z,2.00
2022-11-25T18:27:54.179Z,2.40
2022-11-25T18:30:25.422Z,2.38
2022-11-25T18:32:53.645Z,2.30
2022-11-25T18:35:24.082Z,2.45
2022-11-25T18:37:53.662Z,2.47
2022-11-25T18:40:21.736Z,2.85
2022-11-25T18:42:53.660Z,2.50
2022-11-25T18:45:23.946Z,3.13
2022-11-25T18:47:52.150Z,2.00
2022-11-25T18:50:22.256Z,2.70
2022-11-25T18:52:51.040Z,2.25
2022-11-25T18:55:22.374Z,2.70
2022-11-25T18:57:52.106Z,2.53
2022-11-25T19:00:38.540Z,3.05
2022-11-25T19:03:14.615Z,2.92
2022-11-25T19:05:42.765Z,2.40
2022-11-25T19:08:10.881Z,2.63
2022-11-25T19:10:42.383Z,2.58
2022-11-25T19:13:16.959Z,2.22
2022-11-25T19:15:46.095Z,2.25
2022-11-25T19:18:18.440Z,2.50
2022-11-25T19:20:46.645Z,2.50
2022-11-25T19:23:25.206Z,2.45
2022-11-25T19:25:56.456Z,2.25
2022-11-25T19:28:25.454Z,2.35
2022-11-25T19:30:58.986Z,3.10
2022-11-25T19:33:30.712Z,2.17
2022-11-25T19:35:59.634Z,2.72
2022-11-25T19:38:27.969Z,2.05
2022-11-25T19:40:58.432Z,2.47
2022-11-25T19:43:28.197Z,2.20
2022-11-25T19:45:57.320Z,3.17
2022-11-25T19:48:28.354Z,2.15
2022-11-25T19:50:59.761Z,2.25
2022-11-25T19:53:33.458Z,2.20
2022-11-25T19:56:04.829Z,2.60
2022-11-25T19:58:33.297Z,2.22
2022-11-25T20:01:04.377Z,2.33
2022-11-25T20:03:33.056Z,1.95
2022-11-25T20:06:01.280Z,2.22
2022-11-25T20:08:30.170Z,2.05
2022-11-25T20:10:59.435Z,2.33
2022-11-25T20:13:28.911Z,2.75
2022-11-25T20:15:58.878Z,2.08
2022-11-25T20:18:28.535Z,2.03
2022-11-25T20:21:01.866Z,2.10
2022-11-25T20:23:38.590Z,2.17
2022-11-25T20:26:13.027Z,2.45
2022-11-25T20:28:42.585Z,2.20
2022-11-25T20:31:13.259Z,2.33
2022-11-25T20:33:41.398Z,2.60
2022-11-25T20:36:15.295Z,2.53
2022-11-25T20:38:48.225Z,2.85
2022-11-25T20:41:17.262Z,2.53
2022-11-25T20:43:49.997Z,2.10
2022-11-25T20:46:21.453Z,2.47
2022-11-25T20:48:54.627Z,2.20
2022-11-25T20:51:24.291Z,1.95
2022-11-25T20:53:55.045Z,2.13
2022-11-25T20:56:25.506Z,2.25
2022-11-25T20:58:55.617Z,2.58
2022-11-25T21:01:23.888Z,2.15
2022-11-25T21:03:52.147Z,2.00
2022-11-25T21:06:23.174Z,2.50
2022-11-25T21:08:53.371Z,3.30
2022-11-25T21:11:23.325Z,2.10
2022-11-25T21:13:52.266Z,2.10
2022-11-25T21:16:21.841Z,2.35
2022-11-25T21:18:50.044Z,3.03
2022-11-25T21:21:20.975Z,2.60
2022-11-25T21:23:49.485Z,2.42
2022-11-25T21:26:20.473Z,2.70
2022-11-25T21:28:50.920Z,3.28
2022-11-25T21:31:22.923Z,3.30
2022-11-25T21:33:51.581Z,3.15
2022-11-25T21:36:22.757Z,2.80
2022-11-25T21:38:54.182Z,2.75
2022-11-25T21:41:22.362Z,3.45
2022-11-25T21:43:51.691Z,3.15
2022-11-25T21:46:25.143Z,2.95
2022-11-25T21:48:55.820Z,2.80
2022-11-25T21:51:25.903Z,2.65
2022-11-25T21:53:55.045Z,2.20
2022-11-25T21:56:28.322Z,3.45
2022-11-25T21:58:59.811Z,3.67
2022-11-25T22:01:29.866Z,2.58
2022-11-25T22:03:58.173Z,2.80
2022-11-25T22:06:29.936Z,2.70
2022-11-25T22:08:58.791Z,2.55
2022-11-25T22:11:32.342Z,2.60
2022-11-25T22:14:03.517Z,3.25
2022-11-25T22:16:36.289Z,3.05
2022-11-25T22:19:04.723Z,2.65
2022-11-25T22:21:33.128Z,3.47
2022-11-25T22:24:01.266Z,2.97
2022-11-25T22:26:31.318Z,2.83
2022-11-25T22:29:00.974Z,3.72
2022-11-25T22:31:29.540Z,3.22
2022-11-25T22:33:59.205Z,2.97
2022-11-25T22:36:33.285Z,2.63
2022-11-25T22:39:14.276Z,3.28
2022-11-25T22:41:44.178Z,2.78
2022-11-25T22:44:20.379Z,3.33
2022-11-25T22:46:49.763Z,2.58
2022-11-25T22:49:31.678Z,3.30
2022-11-25T22:52:00.490Z,2.78
2022-11-25T22:54:28.680Z,2.67
2022-11-25T22:56:57.278Z,3.30
2022-11-25T22:59:25.479Z,2.72
2022-11-25T23:01:53.790Z,2.85
2022-11-25T23:04:22.368Z,3.58
2022-11-25T23:06:52.920Z,2.88
2022-11-25T23:09:21.370Z,3.55
2022-11-25T23:11:49.749Z,3.10
2022-11-25T23:14:17.919Z,3.60
2022-11-25T23:16:46.231Z,3.03
2022-11-25T23:19:16.969Z,3.03
2022-11-25T23:21:46.547Z,4.13
2022-11-25T23:24:18.204Z,3.60
2022-11-25T23:26:46.720Z,3.75
2022-11-25T23:29:14.928Z,2.75
2022-11-25T23:31:43.057Z,2.83
2022-11-25T23:34:13.866Z,3.28
2022-11-25T23:36:45.019Z,4.20
2022-11-25T23:39:20.485Z,3.78
2022-11-25T23:41:48.907Z,2.75
2022-11-25T23:44:22.768Z,3.15
2022-11-25T23:46:51.628Z,2.85
2022-11-25T23:49:24.067Z,3.90
2022-11-25T23:51:53.000Z,2.95
2022-11-25T23:54:23.151Z,3.67
2022-11-25T23:56:51.265Z,3.17
2022-11-25T23:59:19.292Z,3.42
